createdAt,value
2022-12-27T00:01:13.498Z,94.60
2022-12-27T00:03:41.272Z,95.22
2022-12-27T00:06:14.617Z,95.96
2022-12-27T00:08:41.567Z,96.76
2022-12-27T00:11:10.726Z,98.06
2022-12-27T00:13:37.384Z,99.29
2022-12-27T00:16:10.572Z,100.00
2022-12-27T00:18:38.923Z,100.00
2022-12-27T00:21:07.596Z,100.00
2022-12-27T00:23:36.962Z,100.00
2022-12-27T00:26:21.855Z,100.00
2022-12-27T00:28:49.100Z,100.00
2022-12-27T00:31:16.878Z,100.00
2022-12-27T00:33:46.001Z,100.00
2022-12-27T00:36:15.618Z,100.00
2022-12-27T00:38:42.817Z,100.00
2022-12-27T00:41:09.626Z,100.00
2022-12-27T00:43:36.730Z,100.00
2022-12-27T00:46:03.626Z,100.00
2022-12-27T00:48:30.849Z,100.00
2022-12-27T00:51:07.032Z,100.00
2022-12-27T00:53:34.790Z,100.00
2022-12-27T00:56:01.753Z,100.00
2022-12-27T00:58:28.678Z,100.00
2022-12-27T01:00:55.444Z,100.00
2022-12-27T01:03:22.086Z,100.00
2022-12-27T01:05:48.694Z,100.00
2022-12-27T01:08:15.352Z,100.00
2022-12-27T01:10:41.969Z,100.00
2022-12-27T01:13:08.862Z,100.00
2022-12-27T01:15:35.443Z,100.00
2022-12-27T01:18:02.132Z,100.00
2022-12-27T01:20:28.757Z,100.00
2022-12-27T01:22:55.500Z,100.00
2022-12-27T01:25:22.102Z,100.00
2022-12-27T01:27:48.717Z,100.00
2022-12-27T01:30:15.423Z,100.00
2022-12-27T01:32:42.033Z,100.00
2022-12-27T01:35:09.296Z,100.00
2022-12-27T01:37:35.934Z,100.00
2022-12-27T01:40:02.540Z,100.00
2022-12-27T01:42:47.787Z,100.00
2022-12-27T01:45:28.344Z,100.00
2022-12-27T01:48:16.293Z,100.00
2022-12-27T01:50:47.327Z,100.00
2022-12-27T01:53:20.110Z,100.00
2022-12-27T01:56:09.150Z,100.00
2022-12-27T01:59:05.036Z,100.00
2022-12-27T02:01:42.259Z,100.00
2022-12-27T02:04:35.292Z,100.00
2022-12-27T02:07:01.834Z,100.00
2022-12-27T02:09:39.393Z,100.00
2022-12-27T02:12:07.536Z,100.00
2022-12-27T02:14:46.182Z,100.00
2022-12-27T02:17:17.257Z,100.00
2022-12-27T02:20:14.765Z,100.00
2022-12-27T02:23:37.730Z,100.00
2022-12-27T02:26:40.658Z,100.00
2022-12-27T02:29:35.619Z,100.00
2022-12-27T02:32:35.418Z,100.00
2022-12-27T02:35:24.645Z,100.00
2022-12-27T02:37:57.893Z,100.00
2022-12-27T02:40:45.534Z,100.00
2022-12-27T02:43:31.359Z,100.00
2022-12-27T02:46:30.319Z,100.00
2022-12-27T02:49:17.069Z,100.00
2022-12-27T02:52:18.984Z,100.00
2022-12-27T02:55:20.500Z,98.78
2022-12-27T02:57:58.166Z,98.61
2022-12-27T03:00:44.584Z,99.68
2022-12-27T03:04:02.816Z,97.87
2022-12-27T03:06:58.516Z,97.83
2022-12-27T03:10:26.948Z,98.13
2022-12-27T03:13:37.666Z,95.71
2022-12-27T03:16:25.740Z,95.55
2022-12-27T03:19:40.830Z,95.96
2022-12-27T03:22:28.368Z,97.23
2022-12-27T03:25:15.761Z,95.49
2022-12-27T03:28:06.584Z,94.94
2022-12-27T03:30:52.692Z,95.09
2022-12-27T03:33:19.599Z,95.16
2022-12-27T03:36:10.973Z,94.37
2022-12-27T03:39:05.347Z,95.09
2022-12-27T03:41:57.602Z,95.10
2022-12-27T03:44:25.984Z,94.81
2022-12-27T03:47:38.516Z,93.84
2022-12-27T03:50:18.861Z,93.67
2022-12-27T03:52:52.947Z,91.79
2022-12-27T03:55:19.692Z,93.03
2022-12-27T03:57:46.485Z,91.74
2022-12-27T04:00:14.091Z,90.47
2022-12-27T04:02:41.231Z,90.96
2022-12-27T04:05:08.477Z,90.20
2022-12-27T04:07:35.449Z,89.94
2022-12-27T04:10:21.009Z,89.89
2022-12-27T04:13:06.447Z,88.82
2022-12-27T04:15:51.868Z,89.68
2022-12-27T04:18:37.104Z,86.88
2022-12-27T04:21:22.508Z,84.96
2022-12-27T04:24:08.051Z,84.08
2022-12-27T04:26:53.305Z,82.26
2022-12-27T04:29:38.750Z,83.65
2022-12-27T04:32:23.918Z,81.60
2022-12-27T04:34:50.565Z,82.40
2022-12-27T04:37:19.282Z,83.71
2022-12-27T04:40:10.835Z,84.04
2022-12-27T04:42:56.199Z,86.39
2022-12-27T04:45:41.575Z,86.44
2022-12-27T04:48:32.329Z,86.84
2022-12-27T04:51:18.775Z,87.76
2022-12-27T04:54:04.202Z,85.40
2022-12-27T04:56:30.842Z,84.74
2022-12-27T04:59:15.955Z,84.86
2022-12-27T05:02:01.388Z,84.24
2022-12-27T05:04:28.113Z,81.06
2022-12-27T05:06:55.148Z,82.47
2022-12-27T05:09:40.240Z,82.23
2022-12-27T05:12:28.015Z,82.06
2022-12-27T05:14:54.676Z,82.46
2022-12-27T05:17:21.250Z,83.17
2022-12-27T05:19:47.834Z,83.41
2022-12-27T05:22:33.075Z,81.55
2022-12-27T05:25:18.520Z,82.82
2022-12-27T05:27:45.192Z,81.03
2022-12-27T05:30:12.298Z,82.00
2022-12-27T05:32:38.901Z,80.83
2022-12-27T05:35:06.072Z,81.85
2022-12-27T05:37:32.847Z,80.87
2022-12-27T05:39:59.455Z,81.17
2022-12-27T05:42:26.036Z,81.97
2022-12-27T05:44:52.606Z,81.90
2022-12-27T05:47:19.190Z,83.24
2022-12-27T05:49:45.793Z,82.60
2022-12-27T05:52:12.369Z,84.06
2022-12-27T05:54:38.958Z,83.10
2022-12-27T05:57:05.583Z,83.85
2022-12-27T05:59:32.159Z,84.01
2022-12-27T06:01:58.891Z,82.96
2022-12-27T06:04:25.569Z,84.01
2022-12-27T06:06:52.159Z,84.13
2022-12-27T06:09:18.767Z,85.04
2022-12-27T06:11:45.353Z,85.35
2022-12-27T06:14:11.992Z,85.35
2022-12-27T06:16:38.687Z,86.03
2022-12-27T06:19:05.335Z,85.79
2022-12-27T06:21:31.988Z,86.02
2022-12-27T06:23:58.590Z,86.52
2022-12-27T06:26:27.556Z,87.00
2022-12-27T06:28:56.013Z,87.23
2022-12-27T06:31:23.848Z,86.58
2022-12-27T06:33:51.705Z,86.66
2022-12-27T06:36:21.020Z,87.19
2022-12-27T06:38:48.300Z,87.58
2022-12-27T06:41:17.465Z,87.84
2022-12-27T06:43:44.987Z,88.48
2022-12-27T06:46:17.578Z,87.48
2022-12-27T06:48:46.083Z,88.03
2022-12-27T06:51:14.337Z,88.61
2022-12-27T06:53:41.171Z,88.06
2022-12-27T06:56:10.737Z,88.30
2022-12-27T06:58:37.750Z,88.04
2022-12-27T07:01:25.244Z,88.27
2022-12-27T07:03:54.502Z,88.92
2022-12-27T07:06:22.681Z,87.81
2022-12-27T07:08:50.709Z,87.81
2022-12-27T07:11:18.932Z,88.93
2022-12-27T07:13:48.383Z,87.73
2022-12-27T07:16:16.977Z,87.86
2022-12-27T07:18:44.043Z,88.04
2022-12-27T07:21:13.853Z,87.97
2022-12-27T07:23:40.500Z,88.06
2022-12-27T07:26:10.193Z,88.95
2022-12-27T07:28:37.716Z,89.38
2022-12-27T07:31:16.484Z,90.18
2022-12-27T07:33:43.945Z,89.99
2022-12-27T07:36:14.990Z,89.94
2022-12-27T07:38:41.711Z,90.94
2022-12-27T07:41:08.410Z,90.47
2022-12-27T07:43:35.899Z,88.33
2022-12-27T07:46:13.934Z,88.73
2022-12-27T07:48:41.186Z,87.99
2022-12-27T07:51:07.913Z,87.27
2022-12-27T07:53:35.477Z,87.02
2022-12-27T07:56:13.644Z,87.29
2022-12-27T07:58:42.264Z,86.96
2022-12-27T08:01:10.504Z,87.08
2022-12-27T08:03:38.030Z,87.21
2022-12-27T08:06:05.460Z,87.39
2022-12-27T08:08:38.492Z,88.13
2022-12-27T08:11:06.138Z,86.82
2022-12-27T08:13:33.322Z,87.51
2022-12-27T08:15:59.888Z,86.64
2022-12-27T08:18:26.630Z,86.11
2022-12-27T08:20:53.270Z,84.39
2022-12-27T08:23:20.292Z,83.35
2022-12-27T08:25:49.091Z,83.48
2022-12-27T08:28:17.688Z,84.58
2022-12-27T08:30:45.600Z,83.74
2022-12-27T08:33:12.695Z,83.22
2022-12-27T08:35:55.791Z,82.86
2022-12-27T08:38:22.432Z,81.82
2022-12-27T08:40:49.073Z,80.76
2022-12-27T08:43:15.702Z,82.06
2022-12-27T08:45:42.307Z,81.14
2022-12-27T08:48:09.028Z,81.00
2022-12-27T08:50:35.684Z,81.41
2022-12-27T08:53:04.184Z,81.10
2022-12-27T08:55:31.031Z,80.94
2022-12-27T08:58:03.120Z,81.83
2022-12-27T09:00:31.276Z,81.38
2022-12-27T09:02:58.577Z,80.64
2022-12-27T09:05:26.822Z,79.52
2022-12-27T09:07:54.017Z,80.28
2022-12-27T09:10:22.340Z,80.71
2022-12-27T09:12:49.237Z,80.13
2022-12-27T09:15:16.226Z,81.44
2022-12-27T09:17:43.182Z,81.42
2022-12-27T09:20:12.369Z,79.64
2022-12-27T09:22:39.534Z,81.08
2022-12-27T09:25:06.724Z,80.36
2022-12-27T09:27:35.099Z,80.15
2022-12-27T09:30:01.972Z,81.10
2022-12-27T09:32:28.493Z,81.81
2022-12-27T09:34:55.095Z,81.04
2022-12-27T09:37:21.795Z,82.80
2022-12-27T09:39:48.651Z,82.20
2022-12-27T09:43:07.490Z,82.39
2022-12-27T09:45:47.817Z,81.35
2022-12-27T09:48:38.353Z,81.13
2022-12-27T09:51:13.653Z,80.74
2022-12-27T09:53:51.126Z,78.50
2022-12-27T09:56:46.890Z,77.21
2022-12-27T09:59:41.856Z,78.58
2022-12-27T10:02:31.705Z,78.43
2022-12-27T10:08:15.556Z,75.47
2022-12-27T10:10:58.958Z,76.06
2022-12-27T10:13:47.007Z,76.40
2022-12-27T10:16:43.818Z,74.45
2022-12-27T10:19:41.241Z,75.83
2022-12-27T10:22:33.627Z,76.14
2022-12-27T10:25:05.026Z,74.75
2022-12-27T10:27:32.028Z,75.56
2022-12-27T10:30:00.217Z,72.90
2022-12-27T10:32:27.353Z,70.96
2022-12-27T10:35:01.236Z,69.08
2022-12-27T10:37:28.066Z,71.86
2022-12-27T10:39:58.074Z,69.43
2022-12-27T10:42:45.927Z,70.84
2022-12-27T10:45:29.052Z,72.45
2022-12-27T10:47:58.565Z,73.47
2022-12-27T10:50:28.496Z,72.05
2022-12-27T10:52:57.691Z,72.86
2022-12-27T10:55:39.290Z,73.93
2022-12-27T10:58:43.171Z,70.55
2022-12-27T11:01:19.000Z,72.18
2022-12-27T11:03:45.824Z,72.35
2022-12-27T11:06:24.502Z,72.94
2022-12-27T11:08:53.141Z,73.48
2022-12-27T11:11:25.640Z,71.69
2022-12-27T11:13:53.114Z,72.54
2022-12-27T11:16:34.936Z,72.10
2022-12-27T11:19:03.340Z,72.31
2022-12-27T11:21:31.513Z,71.68
2022-12-27T11:24:01.765Z,71.22
2022-12-27T11:26:47.574Z,70.69
2022-12-27T11:29:21.455Z,72.54
2022-12-27T11:31:48.706Z,72.55
2022-12-27T11:34:29.901Z,72.26
2022-12-27T11:37:05.432Z,71.49
2022-12-27T11:39:43.820Z,71.31
2022-12-27T11:42:33.548Z,70.41
2022-12-27T11:45:18.426Z,72.11
2022-12-27T11:48:26.316Z,73.36
2022-12-27T11:51:54.766Z,73.33
2022-12-27T11:54:39.736Z,72.12
2022-12-27T11:57:56.671Z,70.00
2022-12-27T12:00:27.231Z,70.74
2022-12-27T12:03:20.544Z,71.33
2022-12-27T12:06:16.894Z,71.54
2022-12-27T12:09:44.781Z,70.72
2022-12-27T12:12:52.651Z,72.48
2022-12-27T12:15:57.458Z,70.70
2022-12-27T12:18:36.773Z,70.95
2022-12-27T12:21:25.828Z,70.51
2022-12-27T12:24:41.134Z,70.89
2022-12-27T12:27:42.491Z,71.02
2022-12-27T12:30:37.791Z,72.06
2022-12-27T12:33:42.948Z,71.31
2022-12-27T12:36:52.718Z,71.78
2022-12-27T12:46:38.829Z,74.96
2022-12-27T12:49:46.399Z,73.52
2022-12-27T12:55:58.995Z,73.43
2022-12-27T12:59:09.669Z,73.52
2022-12-27T13:08:10.223Z,71.84
2022-12-27T13:14:34.621Z,73.07
2022-12-27T13:17:16.778Z,72.12
2022-12-27T13:20:23.498Z,73.24
2022-12-27T13:23:56.521Z,73.06
2022-12-27T13:26:34.581Z,72.23
2022-12-27T13:29:29.023Z,70.15
2022-12-27T13:32:37.478Z,70.18
2022-12-27T13:35:27.154Z,71.19
2022-12-27T13:38:48.204Z,71.37
2022-12-27T13:41:31.377Z,71.71
2022-12-27T13:44:15.152Z,71.54
2022-12-27T13:47:24.769Z,71.39
2022-12-27T13:50:13.126Z,69.92
2022-12-27T13:56:55.435Z,72.87
2022-12-27T13:59:48.400Z,71.89
2022-12-27T14:03:09.415Z,72.25
2022-12-27T14:06:05.851Z,72.31
2022-12-27T14:09:05.345Z,72.12
2022-12-27T14:12:01.382Z,72.80
2022-12-27T14:14:29.779Z,73.88
2022-12-27T14:17:19.139Z,73.14
2022-12-27T14:20:32.522Z,74.83
2022-12-27T14:23:27.074Z,75.67
2022-12-27T14:26:05.563Z,75.22
2022-12-27T14:29:22.721Z,75.51
2022-12-27T14:32:50.970Z,74.34
2022-12-27T14:35:52.010Z,74.76
2022-12-27T14:38:52.799Z,76.47
2022-12-27T14:41:52.992Z,75.89
2022-12-27T14:45:01.962Z,74.73
2022-12-27T14:48:06.241Z,74.43
2022-12-27T14:54:32.749Z,74.70
2022-12-27T14:57:36.936Z,75.17
2022-12-27T15:00:24.614Z,75.29
2022-12-27T15:03:21.416Z,75.29
2022-12-27T15:06:09.562Z,76.78
2022-12-27T15:08:46.672Z,77.12
2022-12-27T15:11:34.998Z,78.41
2022-12-27T15:14:41.408Z,79.39
2022-12-27T15:17:43.100Z,79.15
2022-12-27T15:20:52.853Z,79.72
2022-12-27T15:23:40.582Z,80.58
2022-12-27T15:26:42.133Z,80.13
2022-12-27T15:30:04.281Z,80.43
2022-12-27T15:32:53.454Z,80.86
2022-12-27T15:35:44.740Z,79.40
2022-12-27T15:38:52.989Z,80.48
2022-12-27T15:45:05.178Z,80.25
2022-12-27T15:47:55.128Z,80.82
2022-12-27T15:50:38.610Z,80.35
2022-12-27T15:53:38.076Z,81.42
2022-12-27T15:56:40.863Z,81.67
2022-12-27T15:59:46.876Z,81.66
2022-12-27T16:02:25.532Z,82.18
2022-12-27T16:05:31.004Z,81.21
2022-12-27T16:08:25.957Z,82.63
2022-12-27T16:10:53.004Z,82.16
2022-12-27T16:13:46.337Z,81.61
2022-12-27T16:16:28.433Z,81.45
2022-12-27T16:19:19.957Z,81.08
2022-12-27T16:21:50.468Z,81.03
2022-12-27T16:24:25.576Z,81.52
2022-12-27T16:26:58.341Z,81.75
2022-12-27T16:29:30.034Z,81.52
2022-12-27T16:32:16.763Z,81.57
2022-12-27T16:34:45.612Z,81.20
2022-12-27T16:37:25.348Z,81.69
2022-12-27T16:40:19.891Z,81.86
2022-12-27T16:43:18.503Z,81.23
2022-12-27T16:46:08.540Z,82.12
2022-12-27T16:49:27.710Z,83.52
2022-12-27T16:52:48.063Z,83.03
2022-12-27T16:55:29.862Z,83.45
2022-12-27T16:58:36.152Z,83.84
2022-12-27T17:01:05.628Z,84.94
2022-12-27T17:03:49.889Z,84.33
2022-12-27T17:06:52.543Z,83.62
2022-12-27T17:09:21.557Z,83.99
2022-12-27T17:12:08.352Z,83.98
2022-12-27T17:14:44.253Z,82.66
2022-12-27T17:17:17.532Z,83.45
2022-12-27T17:20:07.561Z,82.91
2022-12-27T17:22:38.480Z,82.44
2022-12-27T17:25:05.503Z,82.26
2022-12-27T17:28:01.356Z,81.28
2022-12-27T17:30:44.917Z,82.30
2022-12-27T17:33:50.380Z,80.02
2022-12-27T17:36:21.593Z,80.12
2022-12-27T17:39:00.691Z,80.50
2022-12-27T17:42:17.114Z,79.28
2022-12-27T17:44:59.171Z,80.82
2022-12-27T17:47:47.421Z,80.23
2022-12-27T17:50:18.148Z,80.08
2022-12-27T17:53:49.452Z,80.32
2022-12-27T17:56:40.558Z,80.37
2022-12-27T17:59:23.392Z,81.38
2022-12-27T18:01:53.569Z,81.48
2022-12-27T18:04:33.795Z,80.99
2022-12-27T18:07:02.997Z,79.54
2022-12-27T18:09:53.849Z,79.84
2022-12-27T18:12:34.585Z,80.69
2022-12-27T18:15:05.330Z,80.14
2022-12-27T18:17:37.500Z,80.12
2022-12-27T18:20:25.678Z,79.69
2022-12-27T18:23:06.497Z,80.96
2022-12-27T18:25:41.981Z,81.24
2022-12-27T18:28:32.492Z,81.65
2022-12-27T18:31:35.187Z,82.51
2022-12-27T18:34:55.195Z,83.04
2022-12-27T18:37:26.281Z,82.24
2022-12-27T18:40:02.520Z,82.27
2022-12-27T18:42:43.216Z,82.28
2022-12-27T18:45:29.082Z,82.06
2022-12-27T18:47:59.768Z,82.34
2022-12-27T18:50:32.602Z,83.26
2022-12-27T18:53:21.321Z,82.50
2022-12-27T18:56:04.861Z,83.40
2022-12-27T18:58:32.219Z,83.36
2022-12-27T19:01:20.397Z,83.40
2022-12-27T19:04:18.525Z,83.93
2022-12-27T19:07:12.579Z,84.26
2022-12-27T19:09:50.685Z,84.71
2022-12-27T19:12:27.986Z,85.18
2022-12-27T19:14:57.757Z,85.56
2022-12-27T19:17:29.766Z,86.10
2022-12-27T19:20:08.206Z,85.43
2022-12-27T19:22:53.256Z,85.99
2022-12-27T19:25:31.630Z,84.73
2022-12-27T19:28:19.377Z,85.79
2022-12-27T19:30:51.532Z,86.36
2022-12-27T19:33:26.824Z,86.52
2022-12-27T19:35:53.951Z,86.61
2022-12-27T19:38:26.885Z,86.88
2022-12-27T19:41:03.298Z,86.90
2022-12-27T19:43:40.036Z,86.46
2022-12-27T19:46:06.861Z,85.58
2022-12-27T19:48:33.456Z,85.50
2022-12-27T19:51:00.091Z,86.09
2022-12-27T19:53:36.854Z,86.01
2022-12-27T19:56:03.867Z,86.11
2022-12-27T19:58:30.973Z,85.76
2022-12-27T20:00:57.930Z,86.05
2022-12-27T20:03:25.233Z,86.01
2022-12-27T20:06:13.557Z,86.36
2022-12-27T20:08:48.362Z,86.22
2022-12-27T20:11:18.305Z,86.96
2022-12-27T20:13:47.376Z,87.32
2022-12-27T20:16:17.362Z,87.67
2022-12-27T20:18:45.071Z,87.32
2022-12-27T20:21:17.118Z,87.66
2022-12-27T20:23:44.175Z,87.14
2022-12-27T20:26:11.922Z,87.80
2022-12-27T20:28:38.748Z,88.74
2022-12-27T20:31:10.851Z,88.17
2022-12-27T20:33:37.462Z,88.36
2022-12-27T20:36:04.908Z,88.79
2022-12-27T20:38:32.157Z,88.11
2022-12-27T20:41:09.514Z,88.43
2022-12-27T20:43:36.346Z,88.42
2022-12-27T20:46:08.095Z,88.86
2022-12-27T20:48:43.673Z,89.19
2022-12-27T20:51:15.758Z,88.97
2022-12-27T20:53:42.703Z,89.09
2022-12-27T20:56:11.071Z,90.21
2022-12-27T20:58:37.685Z,90.04
2022-12-27T21:01:15.927Z,89.34
2022-12-27T21:03:43.620Z,89.65
2022-12-27T21:06:30.222Z,89.79
2022-12-27T21:08:58.532Z,89.61
2022-12-27T21:11:33.550Z,90.07
2022-12-27T21:14:01.894Z,89.32
2022-12-27T21:16:34.806Z,90.47
2022-12-27T21:19:05.083Z,89.96
2022-12-27T21:21:34.363Z,90.72
2022-12-27T21:24:00.972Z,90.28
2022-12-27T21:26:33.734Z,90.07
2022-12-27T21:29:01.369Z,91.15
2022-12-27T21:31:30.628Z,91.58
2022-12-27T21:33:59.491Z,91.08
2022-12-27T21:36:29.998Z,90.22
2022-12-27T21:38:57.583Z,91.18
2022-12-27T21:41:26.308Z,91.02
2022-12-27T21:43:53.369Z,91.49
2022-12-27T21:46:31.797Z,90.76
2022-12-27T21:49:01.040Z,92.32
2022-12-27T21:51:28.970Z,92.75
2022-12-27T21:53:56.069Z,92.60
2022-12-27T21:56:23.120Z,91.42
2022-12-27T21:58:50.150Z,91.64
2022-12-27T22:01:25.782Z,91.92
2022-12-27T22:03:53.911Z,92.04
2022-12-27T22:06:26.218Z,92.77
2022-12-27T22:08:55.163Z,92.58
2022-12-27T22:11:23.307Z,92.31
2022-12-27T22:13:50.885Z,92.55
2022-12-27T22:16:19.925Z,92.79
2022-12-27T22:18:47.433Z,92.56
2022-12-27T22:21:20.466Z,92.76
2022-12-27T22:23:48.980Z,92.35
2022-12-27T22:26:18.694Z,93.97
2022-12-27T22:28:45.644Z,93.95
2022-12-27T22:31:17.240Z,93.03
2022-12-27T22:33:43.994Z,93.39
2022-12-27T22:36:14.231Z,93.09
2022-12-27T22:38:41.257Z,91.67
2022-12-27T22:41:17.039Z,93.34
2022-12-27T22:43:58.684Z,93.50
2022-12-27T22:46:26.378Z,93.69
2022-12-27T22:48:55.155Z,94.26
2022-12-27T22:51:24.231Z,94.45
2022-12-27T22:53:51.209Z,93.40
2022-12-27T22:56:20.344Z,94.36
2022-12-27T22:58:47.704Z,94.80
2022-12-27T23:01:23.454Z,93.19
2022-12-27T23:03:50.521Z,94.35
2022-12-27T23:06:17.703Z,93.55
2022-12-27T23:08:45.014Z,94.33
2022-12-27T23:11:14.687Z,93.88
2022-12-27T23:13:41.381Z,94.52
2022-12-27T23:16:08.354Z,93.94
2022-12-27T23:18:36.686Z,93.84
2022-12-27T23:21:21.523Z,93.34
2022-12-27T23:23:50.478Z,93.21
2022-12-27T23:26:19.509Z,93.76
2022-12-27T23:28:47.530Z,94.10
2022-12-27T23:31:15.060Z,94.77
2022-12-27T23:33:42.962Z,95.28
2022-12-27T23:36:10.969Z,94.70
2022-12-27T23:38:37.764Z,94.58
2022-12-27T23:41:06.831Z,95.54
2022-12-27T23:43:55.869Z,94.11
2022-12-27T23:46:28.176Z,94.96
2022-12-27T23:48:56.336Z,94.39
2022-12-27T23:51:23.169Z,95.43
2022-12-27T23:53:49.953Z,95.23
2022-12-27T23:56:28.409Z,94.68
2022-12-27T23:58:56.757Z,94.56
